South Saint Paul, MN

10:37 PM CST on January 24, 2015 (GMT -0600)
Saint Paul Downtown-Holman | Change Station
CLOSE
Current Station
Airport
Location: St. Paul,
Elevation: 702 ft
Nearby Weather Stations

Elev 702 ft 44.93 °N, 93.06 °W | Updated 44 minutes ago

Overcast
Overcast
36 °F
Feels Like 31 °F
N
6
Wind Variable Wind from ENE

Today
High -- | Low -- °F
--% Chance of Precip.
Yesterday
High -- | Low -- °F
Precip. -- in
7:40 AM 5:08 PM
Waxing Crescent, 28% visible
Pressure 29.66 in
Visibility 10.0 miles
Clouds Overcast 6500 ft
Windchill 31 °F
Dew Point 31 °F
Humidity 82%
Rainfall 0.00 in
Snow Depth Not available.
UV 0 out of 12
Pollen .10 out of 12
Air Quality Not available.
Flu Activity Not available.
METAR KSTP 250353Z AUTO 06005KT 10SM OVC065 02/M01 A2964 RMK AO2 SLP043 T00221006

More Conditions Fewer Conditions

Pressure 29.66 in
Visibility 10.0 miles
Clouds Overcast 6500 ft
Windchill 31 °F
Dew Point 31 °F
Humidity 82%
Rainfall 0.00 in
Snow Depth Not available.
UV 0 out of 12
Pollen .10 out of 12
Air Quality Not available.
Flu Activity Not available.
METAR KSTP 250353Z AUTO 06005KT 10SM OVC065 02/M01 A2964 RMK AO2 SLP043 T00221006

More Conditions Fewer Conditions

10-Day Weather Forecast

Almanac

Astronomy

Jan. 24, 2015 Rise Set
Actual Time
Civil Twilight
Nautical Twilight
Astronomical Twilight
Moon
Length of Visible Light
Length of Day
Tomorrow will be .
, % of the Moon is Illuminated

Today's Extremes

State Highs State Lows

Community

WunderPhotos

Upload Photos

1,789,838 photos uploaded!

WunderBlogs® & News

Nearby

Air Quality

  Air Quality AQ Index Pollutant
Not available.

Snow Depth

Station Depth Elevation

Earthquake Activity

City Distance Mag. Time & Date
Minimum magnitude displayed is 2.5.

Coastal Water Temperatures

Place Temperature

Nearby Weather Stations